createdAt,value
2024-05-09T00:01:18.366Z,2.30
2024-05-09T00:04:04.262Z,1.90
2024-05-09T00:06:52.526Z,2.67
2024-05-09T00:09:38.118Z,2.00
2024-05-09T00:12:23.723Z,2.07
2024-05-09T00:15:09.506Z,2.20
2024-05-09T00:18:00.064Z,2.70
2024-05-09T00:20:48.018Z,2.80
2024-05-09T00:23:33.418Z,2.40
2024-05-09T00:26:19.100Z,2.60
2024-05-09T00:29:04.647Z,2.80
2024-05-09T00:31:50.290Z,2.50
2024-05-09T00:34:38.406Z,2.80
2024-05-09T00:37:28.544Z,2.70
2024-05-09T00:40:26.456Z,2.47
2024-05-09T00:43:16.967Z,2.50
2024-05-09T00:46:06.227Z,3.03
2024-05-09T00:48:52.276Z,2.30
2024-05-09T00:51:40.138Z,2.63
2024-05-09T00:54:26.930Z,2.70
2024-05-09T00:57:15.097Z,2.30
2024-05-09T01:00:01.204Z,2.50
2024-05-09T01:02:47.825Z,2.40
2024-05-09T01:05:34.913Z,2.07
2024-05-09T01:08:21.171Z,2.67
2024-05-09T01:11:07.835Z,2.50
2024-05-09T01:13:53.343Z,2.30
2024-05-09T01:16:39.587Z,2.67
2024-05-09T01:19:32.783Z,1.93
2024-05-09T01:22:22.251Z,2.30
2024-05-09T01:25:07.855Z,2.30
2024-05-09T01:27:53.715Z,1.90
2024-05-09T01:30:39.799Z,2.27
2024-05-09T01:33:25.666Z,1.67
2024-05-09T01:36:11.590Z,2.20
2024-05-09T01:38:57.567Z,2.30
2024-05-09T01:41:43.245Z,2.20
2024-05-09T01:44:28.975Z,2.10
2024-05-09T01:47:14.491Z,2.60
2024-05-09T01:50:03.581Z,1.80
2024-05-09T01:52:49.688Z,2.13
2024-05-09T01:55:35.044Z,2.17
2024-05-09T01:58:24.408Z,2.37
2024-05-09T02:01:10.194Z,2.80
2024-05-09T02:03:55.939Z,2.60
2024-05-09T02:06:44.071Z,2.00
2024-05-09T02:09:29.489Z,2.60
2024-05-09T02:12:15.427Z,2.17
2024-05-09T02:15:00.949Z,2.70
2024-05-09T02:17:47.058Z,2.43
2024-05-09T02:20:36.445Z,3.00
2024-05-09T02:23:22.722Z,2.40
2024-05-09T02:26:10.449Z,2.40
2024-05-09T02:28:59.725Z,2.00
2024-05-09T02:31:45.405Z,2.33
2024-05-09T02:34:31.239Z,2.50
2024-05-09T02:37:16.820Z,2.40
2024-05-09T02:40:05.807Z,2.37
2024-05-09T02:42:58.930Z,2.70
2024-05-09T02:45:44.450Z,2.50
2024-05-09T02:48:30.208Z,2.40
2024-05-09T02:51:15.904Z,2.93
2024-05-09T02:54:01.379Z,2.87
2024-05-09T02:56:47.067Z,2.43
2024-05-09T02:59:35.652Z,2.43
2024-05-09T03:02:21.411Z,2.80
2024-05-09T03:05:07.765Z,2.33
2024-05-09T03:07:53.303Z,2.43
2024-05-09T03:10:41.015Z,2.37
2024-05-09T03:13:26.665Z,2.40
2024-05-09T03:16:12.157Z,2.47
2024-05-09T03:18:58.522Z,2.40
2024-05-09T03:21:43.923Z,2.27
2024-05-09T03:24:29.769Z,2.63
2024-05-09T03:27:15.659Z,3.10
2024-05-09T03:30:01.422Z,2.43
2024-05-09T03:32:47.092Z,2.47
2024-05-09T03:35:33.622Z,2.73
2024-05-09T03:38:19.227Z,2.80
2024-05-09T03:41:07.273Z,2.20
2024-05-09T03:43:53.069Z,2.90
2024-05-09T03:46:39.498Z,2.60
2024-05-09T03:49:27.707Z,3.10
2024-05-09T03:52:13.285Z,2.67
2024-05-09T03:55:01.074Z,2.97
2024-05-09T03:57:48.963Z,2.60
2024-05-09T04:00:38.728Z,2.40
2024-05-09T04:03:26.076Z,2.80
2024-05-09T04:06:11.899Z,2.77
2024-05-09T04:08:59.964Z,3.03
2024-05-09T04:11:46.041Z,2.57
2024-05-09T04:14:32.020Z,2.87
2024-05-09T04:17:17.860Z,2.90
2024-05-09T04:20:08.372Z,3.03
2024-05-09T04:22:54.276Z,2.73
2024-05-09T04:25:45.369Z,2.87
2024-05-09T04:28:31.324Z,2.93
2024-05-09T04:31:17.046Z,2.80
2024-05-09T04:34:02.711Z,2.40
2024-05-09T04:36:48.212Z,3.27
2024-05-09T04:39:33.732Z,2.53
2024-05-09T04:42:19.235Z,3.17
2024-05-09T04:45:04.994Z,2.37
2024-05-09T04:47:50.737Z,2.90
2024-05-09T04:50:39.010Z,2.73
2024-05-09T04:53:25.200Z,2.77
2024-05-09T04:56:12.746Z,3.07
2024-05-09T04:58:58.330Z,2.80
2024-05-09T05:01:48.498Z,3.10
2024-05-09T05:04:34.394Z,2.70
2024-05-09T05:07:22.776Z,2.70
2024-05-09T05:10:14.846Z,3.37
2024-05-09T05:13:20.571Z,2.90
2024-05-09T05:16:07.594Z,3.00
2024-05-09T05:18:55.944Z,3.20
2024-05-09T05:21:43.644Z,2.67
2024-05-09T05:24:29.562Z,2.80
2024-05-09T05:27:17.310Z,2.77
2024-05-09T05:30:04.613Z,3.40
2024-05-09T05:32:51.292Z,3.20
2024-05-09T05:35:37.735Z,2.97
2024-05-09T05:38:28.198Z,3.10
2024-05-09T05:41:14.274Z,2.60
2024-05-09T05:43:59.993Z,2.73
2024-05-09T05:46:45.664Z,2.30
2024-05-09T05:49:31.299Z,3.03
2024-05-09T05:52:16.920Z,2.23
2024-05-09T05:55:02.382Z,3.30
2024-05-09T05:57:47.931Z,3.10
2024-05-09T06:00:38.448Z,2.50
2024-05-09T06:03:26.264Z,2.73
2024-05-09T06:06:13.736Z,2.70
2024-05-09T06:09:01.756Z,2.67
2024-05-09T06:11:49.522Z,2.93
2024-05-09T06:14:35.325Z,2.67
2024-05-09T06:17:25.866Z,2.63
2024-05-09T06:20:20.232Z,2.80
2024-05-09T06:23:10.228Z,3.00
2024-05-09T06:25:56.232Z,2.90
2024-05-09T06:28:41.968Z,2.60
2024-05-09T06:31:27.665Z,2.90
2024-05-09T06:34:13.490Z,2.43
2024-05-09T06:36:59.563Z,2.23
2024-05-09T06:39:46.260Z,3.20
2024-05-09T06:42:32.141Z,3.70
2024-05-09T06:45:17.716Z,2.67
2024-05-09T06:48:05.919Z,3.00
2024-05-09T06:50:54.190Z,2.60
2024-05-09T06:53:41.317Z,2.53
2024-05-09T06:56:26.754Z,2.17
2024-05-09T06:59:12.609Z,2.20
2024-05-09T07:01:58.299Z,2.90
2024-05-09T07:04:46.328Z,2.27
2024-05-09T07:07:32.148Z,2.60
2024-05-09T07:10:22.196Z,3.00
2024-05-09T07:13:15.326Z,2.37
2024-05-09T07:16:01.136Z,2.43
2024-05-09T07:18:49.821Z,2.97
2024-05-09T07:21:35.436Z,1.93
2024-05-09T07:24:21.139Z,2.53
2024-05-09T07:27:06.787Z,2.40
2024-05-09T07:29:52.248Z,1.83
2024-05-09T07:32:38.146Z,3.57
2024-05-09T07:35:24.108Z,2.20
2024-05-09T07:38:09.940Z,2.00
2024-05-09T07:40:55.748Z,2.13
2024-05-09T07:43:41.326Z,1.93
2024-05-09T07:50:55.880Z,2.00
2024-05-09T07:53:30.358Z,1.90
2024-05-09T07:55:27.299Z,2.00
2024-05-09T07:58:13.088Z,2.00
2024-05-09T08:00:58.943Z,2.33
2024-05-09T08:03:45.230Z,1.70
2024-05-09T08:06:33.715Z,1.97
2024-05-09T08:09:21.210Z,2.00
2024-05-09T08:12:09.461Z,2.00
2024-05-09T08:14:56.365Z,1.90
2024-05-09T08:17:42.152Z,1.40
2024-05-09T08:20:31.299Z,1.50
2024-05-09T08:23:23.890Z,2.10
2024-05-09T08:26:09.675Z,1.63
2024-05-09T08:28:57.464Z,1.77
2024-05-09T08:31:45.471Z,1.70
2024-05-09T08:34:31.294Z,1.57
2024-05-09T08:37:22.344Z,1.83
2024-05-09T08:40:23.586Z,1.97
2024-05-09T08:43:16.356Z,1.33
2024-05-09T08:46:04.346Z,1.73
2024-05-09T08:48:52.710Z,1.90
2024-05-09T08:51:38.436Z,1.80
2024-05-09T08:54:24.004Z,1.83
2024-05-09T08:57:09.841Z,1.47
2024-05-09T08:59:58.658Z,1.80
2024-05-09T09:02:45.120Z,1.67
2024-05-09T09:05:31.992Z,1.73
2024-05-09T09:08:18.651Z,1.70
2024-05-09T09:11:04.890Z,2.03
2024-05-09T09:13:50.580Z,1.83
2024-05-09T09:16:36.874Z,1.70
2024-05-09T09:19:23.413Z,1.40
2024-05-09T09:22:10.316Z,1.43
2024-05-09T09:24:55.890Z,1.93
2024-05-09T09:27:41.786Z,1.50
2024-05-09T09:30:36.146Z,1.83
2024-05-09T09:33:23.754Z,1.70
2024-05-09T09:36:11.582Z,3.60
2024-05-09T09:39:02.110Z,1.90
2024-05-09T09:41:50.947Z,1.40
2024-05-09T09:44:42.262Z,1.20
2024-05-09T09:47:35.168Z,1.20
2024-05-09T09:50:27.887Z,1.30
2024-05-09T09:53:20.431Z,1.50
2024-05-09T09:56:07.970Z,2.10
2024-05-09T09:58:55.440Z,1.63
2024-05-09T10:01:44.721Z,1.67
2024-05-09T10:04:31.493Z,1.60
2024-05-09T10:07:21.512Z,1.70
2024-05-09T10:10:10.979Z,1.83
2024-05-09T10:13:05.954Z,1.60
2024-05-09T10:15:53.174Z,1.57
2024-05-09T10:18:41.066Z,1.33
2024-05-09T10:21:27.318Z,1.50
2024-05-09T10:24:18.948Z,2.00
2024-05-09T10:27:07.521Z,1.30
2024-05-09T10:29:56.148Z,1.70
2024-05-09T10:32:41.971Z,1.73
2024-05-09T10:35:32.720Z,1.47
2024-05-09T10:38:18.569Z,1.70
2024-05-09T10:41:05.669Z,1.50
2024-05-09T10:43:52.323Z,1.80
2024-05-09T10:46:38.013Z,1.40
2024-05-09T10:49:24.092Z,1.70
2024-05-09T10:52:09.461Z,2.00
2024-05-09T10:54:57.181Z,1.73
2024-05-09T10:57:44.895Z,1.73
2024-05-09T11:00:36.901Z,1.40
2024-05-09T11:03:26.394Z,1.67
2024-05-09T11:06:15.333Z,1.43
2024-05-09T11:09:01.039Z,1.27
2024-05-09T11:11:47.621Z,1.03
2024-05-09T11:14:35.301Z,1.70
2024-05-09T11:17:20.978Z,1.50
2024-05-09T11:20:13.709Z,1.80
2024-05-09T11:23:08.416Z,1.40
2024-05-09T11:25:56.148Z,1.53
2024-05-09T11:28:45.964Z,2.07
2024-05-09T11:31:31.923Z,1.70
2024-05-09T11:34:18.115Z,1.60
2024-05-09T11:37:04.350Z,2.00
2024-05-09T11:39:53.904Z,1.17
2024-05-09T11:42:41.581Z,1.60
2024-05-09T11:45:27.710Z,1.60
2024-05-09T11:48:13.498Z,1.70
2024-05-09T11:50:58.972Z,1.80
2024-05-09T11:53:44.811Z,1.37
2024-05-09T11:56:30.711Z,1.47
2024-05-09T11:59:19.156Z,1.37
2024-05-09T12:02:05.085Z,1.27
2024-05-09T12:04:50.823Z,1.50
2024-05-09T12:07:36.326Z,1.60
2024-05-09T12:10:31.806Z,1.20
2024-05-09T12:13:19.773Z,1.17
2024-05-09T12:16:06.615Z,1.57
2024-05-09T12:18:57.036Z,1.50
2024-05-09T12:21:42.887Z,1.30
2024-05-09T12:24:30.589Z,1.60
2024-05-09T12:27:16.041Z,1.80
2024-05-09T12:30:01.769Z,1.27
2024-05-09T12:32:48.863Z,1.30
2024-05-09T12:35:34.916Z,1.37
2024-05-09T12:38:20.414Z,1.37
2024-05-09T12:41:06.059Z,1.20
2024-05-09T12:43:51.671Z,1.37
2024-05-09T12:46:37.386Z,1.00
2024-05-09T12:49:24.546Z,0.93
2024-05-09T12:52:10.647Z,1.08
2024-05-09T12:54:56.207Z,0.90
2024-05-09T12:57:44.196Z,0.98
2024-05-09T13:00:33.741Z,1.20
2024-05-09T13:03:20.361Z,0.73
2024-05-09T13:06:06.294Z,0.80
2024-05-09T13:08:51.884Z,0.82
2024-05-09T13:11:37.652Z,0.95
2024-05-09T13:14:23.773Z,0.70
2024-05-09T13:17:09.486Z,1.00
2024-05-09T13:19:55.302Z,0.70
2024-05-09T13:22:42.483Z,0.90
2024-05-09T13:25:30.572Z,0.90
2024-05-09T13:28:16.494Z,0.90
2024-05-09T13:31:02.618Z,0.60
2024-05-09T13:33:48.274Z,0.90
2024-05-09T13:36:34.612Z,0.77
2024-05-09T13:39:20.317Z,1.00
2024-05-09T13:42:12.792Z,0.70
2024-05-09T13:44:59.228Z,0.80
2024-05-09T13:47:45.248Z,0.70
2024-05-09T13:50:35.121Z,0.80
2024-05-09T13:53:22.139Z,0.60
2024-05-09T13:56:08.780Z,0.90
2024-05-09T13:58:54.973Z,1.00
2024-05-09T14:01:40.705Z,0.73
2024-05-09T14:04:26.633Z,1.02
2024-05-09T14:07:14.743Z,0.90
2024-05-09T14:10:00.842Z,0.90
2024-05-09T14:12:46.821Z,0.80
2024-05-09T14:15:32.413Z,0.98
2024-05-09T14:18:18.326Z,0.70
2024-05-09T14:21:04.320Z,0.98
2024-05-09T14:23:50.007Z,0.98
2024-05-09T14:26:35.613Z,0.80
2024-05-09T14:29:21.114Z,0.95
2024-05-09T14:32:07.586Z,0.90
2024-05-09T14:34:54.454Z,1.00
2024-05-09T14:37:40.594Z,1.20
2024-05-09T14:40:36.944Z,1.17
2024-05-09T14:43:27.501Z,1.65
2024-05-09T14:46:13.841Z,1.65
2024-05-09T14:49:00.616Z,1.40
2024-05-09T14:51:48.774Z,1.20
2024-05-09T14:54:34.505Z,1.43
2024-05-09T14:57:20.394Z,1.87
2024-05-09T15:00:09.043Z,2.00
2024-05-09T15:03:00.569Z,1.30
2024-05-09T15:05:47.857Z,1.40
2024-05-09T15:08:35.684Z,1.47
2024-05-09T15:11:21.743Z,1.20
2024-05-09T15:14:09.838Z,1.50
2024-05-09T15:16:55.534Z,1.80
2024-05-09T15:19:44.431Z,1.50
2024-05-09T15:22:30.772Z,1.83
2024-05-09T15:25:17.067Z,1.80
2024-05-09T15:28:02.950Z,1.57
2024-05-09T15:30:48.646Z,1.57
2024-05-09T15:33:34.729Z,1.27
2024-05-09T15:36:20.915Z,1.60
2024-05-09T15:39:06.529Z,1.40
2024-05-09T15:41:56.583Z,2.00
2024-05-09T15:44:45.113Z,1.57
2024-05-09T15:47:34.027Z,1.50
2024-05-09T15:50:28.326Z,1.30
2024-05-09T15:53:21.481Z,1.20
2024-05-09T15:56:10.366Z,1.83
2024-05-09T15:58:56.568Z,1.70
2024-05-09T16:01:42.463Z,1.60
2024-05-09T16:04:28.364Z,1.67
2024-05-09T16:07:14.465Z,1.33
2024-05-09T16:10:00.584Z,1.77
2024-05-09T16:12:46.894Z,1.30
2024-05-09T16:15:37.567Z,1.47
2024-05-09T16:18:23.740Z,1.50
2024-05-09T16:21:11.604Z,1.60
2024-05-09T16:23:59.854Z,1.60
2024-05-09T16:26:45.708Z,1.60
2024-05-09T16:29:31.503Z,1.77
2024-05-09T16:32:19.453Z,1.47
2024-05-09T16:35:06.029Z,1.30
2024-05-09T16:37:54.107Z,1.73
2024-05-09T16:40:41.318Z,1.63
2024-05-09T16:43:27.878Z,2.00
2024-05-09T16:46:15.517Z,1.60
2024-05-09T16:49:02.165Z,1.30
2024-05-09T16:51:47.842Z,1.30
2024-05-09T16:54:33.404Z,1.47
2024-05-09T16:57:19.195Z,1.30
2024-05-09T17:00:11.759Z,1.20
2024-05-09T17:03:05.713Z,1.60
2024-05-09T17:05:51.532Z,1.30
2024-05-09T17:08:37.926Z,1.40
2024-05-09T17:11:26.369Z,1.43
2024-05-09T17:14:14.231Z,1.63
2024-05-09T17:17:00.137Z,1.43
2024-05-09T17:19:48.720Z,1.40
2024-05-09T17:22:35.311Z,1.70
2024-05-09T17:25:21.075Z,1.57
2024-05-09T17:28:10.048Z,1.40
2024-05-09T17:30:58.079Z,1.50
2024-05-09T17:33:47.355Z,1.50
2024-05-09T17:36:33.080Z,1.87
2024-05-09T17:39:18.523Z,1.70
2024-05-09T17:42:07.028Z,1.50
2024-05-09T17:44:52.776Z,1.40
2024-05-09T17:47:38.778Z,1.30
2024-05-09T17:50:34.732Z,1.27
2024-05-09T17:53:24.766Z,1.40
2024-05-09T17:56:10.784Z,1.17
2024-05-09T17:58:56.519Z,1.40
2024-05-09T18:01:44.692Z,1.33
2024-05-09T18:04:33.808Z,1.57
2024-05-09T18:07:19.673Z,1.40
2024-05-09T18:10:10.155Z,1.40
2024-05-09T18:13:01.516Z,1.90
2024-05-09T18:15:47.812Z,1.60
2024-05-09T18:18:33.632Z,1.70
2024-05-09T18:21:19.266Z,2.00
2024-05-09T18:24:07.506Z,1.50
2024-05-09T18:26:56.188Z,1.80
2024-05-09T18:29:42.056Z,1.90
2024-05-09T18:32:27.740Z,1.73
2024-05-09T18:35:13.446Z,1.70
2024-05-09T18:37:59.246Z,1.70
2024-05-09T18:40:48.149Z,1.80
2024-05-09T18:43:38.560Z,2.20
2024-05-09T18:46:30.354Z,2.13
2024-05-09T18:49:16.342Z,2.47
2024-05-09T18:52:05.961Z,2.27
2024-05-09T18:54:52.178Z,2.20
2024-05-09T18:57:38.054Z,2.63
2024-05-09T19:00:33.627Z,2.60
2024-05-09T19:03:23.102Z,2.30
2024-05-09T19:06:09.134Z,2.00
2024-05-09T19:08:54.921Z,2.13
2024-05-09T19:11:43.258Z,2.10
2024-05-09T19:14:29.174Z,2.00
2024-05-09T19:17:15.145Z,2.27
2024-05-09T19:20:01.214Z,2.13
2024-05-09T19:22:49.280Z,2.10
2024-05-09T19:25:39.002Z,1.97
2024-05-09T19:28:24.873Z,2.10
2024-05-09T19:31:10.905Z,1.63
2024-05-09T19:33:56.900Z,1.90
2024-05-09T19:36:42.666Z,1.97
2024-05-09T19:39:31.183Z,1.60
2024-05-09T19:42:16.753Z,2.23
2024-05-09T19:45:02.556Z,2.20
2024-05-09T19:47:48.366Z,2.67
2024-05-09T19:50:41.910Z,2.13
2024-05-09T19:53:29.713Z,2.00
2024-05-09T19:56:15.750Z,2.13
2024-05-09T19:59:01.566Z,2.27
2024-05-09T20:01:48.284Z,2.63
2024-05-09T20:04:34.612Z,2.57
2024-05-09T20:07:22.539Z,2.60
2024-05-09T20:10:16.461Z,2.00
2024-05-09T20:13:08.266Z,2.10
2024-05-09T20:16:01.285Z,2.13
2024-05-09T20:18:50.152Z,2.50
2024-05-09T20:21:44.218Z,2.60
2024-05-09T20:24:29.733Z,2.17
2024-05-09T20:27:15.350Z,2.53
2024-05-09T20:30:03.963Z,2.43
2024-05-09T20:32:54.245Z,1.90
2024-05-09T20:35:40.387Z,2.57
2024-05-09T20:38:26.498Z,2.60
2024-05-09T20:41:12.796Z,2.67
2024-05-09T20:44:01.668Z,3.30
2024-05-09T20:46:47.928Z,3.03
2024-05-09T20:49:35.756Z,2.63
2024-05-09T20:52:21.320Z,3.33
2024-05-09T20:55:06.905Z,2.50
2024-05-09T20:57:52.695Z,3.57
2024-05-09T21:00:42.087Z,3.00
2024-05-09T21:03:33.496Z,3.03
2024-05-09T21:06:19.483Z,3.63
2024-05-09T21:09:04.864Z,3.40
2024-05-09T21:11:50.704Z,3.33
2024-05-09T21:14:36.913Z,3.43
2024-05-09T21:17:22.517Z,3.70
2024-05-09T21:20:16.887Z,2.93
2024-05-09T21:23:05.781Z,2.80
2024-05-09T21:25:51.422Z,3.60
2024-05-09T21:28:37.053Z,2.53
2024-05-09T21:31:22.862Z,3.10
2024-05-09T21:34:08.512Z,2.70
2024-05-09T21:36:56.266Z,2.90
2024-05-09T21:39:42.861Z,2.73
2024-05-09T21:42:28.520Z,3.40
2024-05-09T21:45:14.081Z,3.33
2024-05-09T21:48:02.948Z,2.50
2024-05-09T21:50:48.742Z,3.60
2024-05-09T21:53:35.838Z,2.93
2024-05-09T21:56:22.539Z,2.70
2024-05-09T21:59:08.022Z,3.00
2024-05-09T22:01:53.636Z,2.77
2024-05-09T22:04:39.281Z,3.40
2024-05-09T22:07:25.059Z,3.13
2024-05-09T22:10:20.035Z,3.00
2024-05-09T22:13:11.959Z,3.20
2024-05-09T22:15:57.891Z,3.20
2024-05-09T22:18:43.574Z,2.53
2024-05-09T22:21:29.521Z,2.77
2024-05-09T22:24:17.675Z,3.00
2024-05-09T22:27:06.207Z,3.00
2024-05-09T22:29:52.215Z,3.27
2024-05-09T22:32:38.919Z,3.30
2024-05-09T22:35:24.832Z,3.60
2024-05-09T22:38:10.856Z,3.30
2024-05-09T22:40:56.486Z,3.77
2024-05-09T22:43:42.150Z,3.83
2024-05-09T22:46:28.090Z,3.23
2024-05-09T22:49:13.983Z,3.80
2024-05-09T22:51:59.470Z,4.53
2024-05-09T22:54:45.339Z,4.60
2024-05-09T22:57:31.168Z,4.10
2024-05-09T23:00:21.652Z,3.10
2024-05-09T23:03:11.736Z,3.63
2024-05-09T23:05:57.365Z,4.00
2024-05-09T23:08:45.231Z,4.70
2024-05-09T23:11:31.205Z,3.40
2024-05-09T23:14:16.712Z,4.27
2024-05-09T23:17:02.410Z,4.13
2024-05-09T23:19:47.835Z,4.07
2024-05-09T23:22:33.455Z,3.90
2024-05-09T23:25:19.148Z,4.13
2024-05-09T23:28:05.101Z,4.37
2024-05-09T23:30:50.831Z,3.63
2024-05-09T23:33:36.401Z,4.60
2024-05-09T23:36:21.910Z,4.50
2024-05-09T23:39:09.797Z,3.90
2024-05-09T23:41:55.521Z,4.37
2024-05-09T23:44:41.248Z,4.30
2024-05-09T23:47:26.746Z,4.57
2024-05-09T23:50:16.988Z,4.37
2024-05-09T23:53:10.257Z,3.93
2024-05-09T23:55:56.502Z,4.23
2024-05-09T23:58:42.129Z,5.10
